CDT,Max TemperatureF,Mean TemperatureF,Min TemperatureF,Max Dew PointF,MeanDew PointF,Min DewpointF,Max Humidity, Mean Humidity, Min Humidity, Max Sea Level PressureIn, Mean Sea Level PressureIn, Min Sea Level PressureIn, Max VisibilityMiles, Mean VisibilityMiles, Min VisibilityMiles, Max Wind SpeedMPH, Mean Wind SpeedMPH, Max Gust SpeedMPH,PrecipitationIn, CloudCover, Events, WindDirDegrees
2012-7-1,96,84,72,73,67,59,85,59,32,29.96,29.89,29.83,10,10,9,15,6,20,0.00,0,,200
2012-7-2,95,81,66,70,67,64,79,59,39,29.97,29.91,29.87,10,10,10,20,8,23,0.00,0,,195
2012-7-3,97,86,75,70,68,65,74,55,35,29.91,29.85,29.80,10,10,10,17,10,22,0.00,0,,206
2012-7-4,99,87,75,68,64,59,74,52,29,29.89,29.86,29.82,10,10,8,20,11,25,0.00,0,,202
2012-7-5,100,87,73,67,63,58,68,48,27,29.96,29.92,29.87,10,10,10,16,7,20,0.00,0,,212
2012-7-6,100,87,74,70,64,60,69,48,27,29.99,29.95,29.92,10,10,10,16,7,22,0.00,0,,204
2012-7-7,105,89,73,77,67,60,85,55,24,29.99,29.96,29.92,10,10,10,20,6,26,0.03,0,Thunderstorm,312
2012-7-8,88,80,72,71,65,60,87,64,40,30.10,30.05,30.00,10,10,10,17,10,22,0.00,2,,41
2012-7-9,91,78,66,66,60,54,79,55,29,30.10,30.06,30.01,10,10,10,12,6,17,0.05,2,,32
2012-7-10,89,76,63,65,58,53,84,56,31,30.10,30.06,30.03,10,10,10,13,7,23,0.00,0,,21
2012-7-11,90,77,64,61,59,57,84,59,34,30.10,30.06,30.00,10,10,10,9,6,,0.00,1,,71
2012-7-12,94,82,69,64,60,56,66,49,32,30.03,30.00,29.95,10,10,10,17,5,21,0.00,2,,160
2012-7-13,84,78,70,66,63,60,78,62,49,30.07,30.00,29.96,10,10,10,14,6,,0.04,1,Rain,152
2012-7-14,96,80,64,68,64,58,100,64,28,30.05,30.01,29.96,10,9,3,20,4,120,0.00,0,,238
2012-7-15,96,83,70,65,63,59,84,57,29,30.05,30.00,29.94,10,10,10,37,7,79,0.00,1,,186
2012-7-16,95,83,71,66,64,63,79,57,34,29.99,29.91,29.82,10,10,10,31,9,84,0.00,0,,198
2012-7-17,99,87,74,67,64,61,73,51,29,29.87,29.84,29.79,10,10,10,18,8,23,0.00,0,,203
2012-7-18,103,90,76,69,64,61,69,47,25,29.88,29.83,29.78,10,10,10,20,10,24,0.00,1,,226
2012-7-19,99,86,72,70,66,61,93,62,30,30.02,29.94,29.85,10,10,9,18,8,23,0.00,0,,11
2012-7-20,92,79,65,66,61,55,93,62,30,30.10,30.06,30.02,10,10,7,14,7,18,0.00,0,,67
2012-7-21,96,81,65,64,61,56,87,58,28,30.10,30.04,29.99,10,10,10,12,7,15,0.00,0,,169
2012-7-22,102,86,71,64,60,57,71,43,24,30.06,29.99,29.95,10,10,10,21,9,33,0.00,0,,192
2012-7-23,103,89,75,64,60,56,54,38,21,30.02,29.98,29.95,10,10,10,12,8,17,0.00,0,,223
2012-7-24,102,90,77,65,63,61,62,45,27,29.96,29.88,29.79,10,10,10,18,9,25,0.00,0,,208
2012-7-25,104,88,71,70,64,61,58,42,25,29.80,29.72,29.60,10,9,2,32,15,38,0.54,2,Rain-Thunderstorm,220
2012-7-26,95,83,71,70,65,59,93,65,36,29.86,29.80,29.72,10,9,3,39,8,58,0.27,2,Rain-Thunderstorm,274
2012-7-27,87,76,65,65,60,58,84,61,37,30.07,29.97,29.86,10,10,10,17,8,33,0.00,0,,333
2012-7-28,90,76,61,60,58,55,90,61,32,30.15,30.08,30.00,10,10,10,17,6,24,0.12,1,Rain-Thunderstorm,114
2012-7-29,96,81,66,68,64,59,84,60,35,30.04,29.94,29.85,10,10,10,22,8,29,0.18,2,Rain-Thunderstorm,146
2012-7-30,92,81,70,70,69,68,93,82,71,29.94,29.89,29.85,10,8,4,5,2,,0.00,0,,20
2012-7-31,99,88,75,62,61,59,64,47,29,29.98,29.95,29.92,10,10,10,9,6,,0.00,0,,54